createdAt,value
2017-12-22T00:00:08.638Z,27.90
2017-12-22T00:01:08.652Z,27.80
2017-12-22T00:02:08.600Z,27.80
2017-12-22T00:03:08.589Z,28.10
2017-12-22T00:04:08.561Z,27.00
2017-12-22T00:05:08.550Z,27.90
2017-12-22T00:06:08.523Z,26.70
2017-12-22T00:07:08.504Z,27.40
2017-12-22T00:08:08.499Z,27.90
2017-12-22T00:09:08.468Z,28.20
2017-12-22T00:10:08.444Z,27.90
2017-12-22T00:11:08.422Z,28.10
2017-12-22T00:12:08.405Z,28.20
2017-12-22T00:13:08.549Z,28.20
2017-12-22T00:14:08.366Z,27.30
2017-12-22T00:15:08.363Z,27.20
2017-12-22T00:16:08.354Z,26.10
2017-12-22T00:17:08.313Z,25.30
2017-12-22T00:18:08.289Z,25.90
2017-12-22T00:19:08.321Z,25.00
2017-12-22T00:20:08.249Z,26.00
2017-12-22T00:21:08.228Z,25.70
2017-12-22T00:22:08.214Z,26.80
2017-12-22T00:23:08.190Z,26.80
2017-12-22T00:24:08.184Z,25.30
2017-12-22T00:25:08.151Z,24.40
2017-12-22T00:26:08.132Z,24.80
2017-12-22T00:27:08.113Z,24.60
2017-12-22T00:28:08.091Z,25.20
2017-12-22T00:29:08.071Z,25.00
2017-12-22T00:30:08.061Z,25.30
2017-12-22T00:31:08.032Z,26.50
2017-12-22T00:32:08.016Z,25.70
2017-12-22T00:33:07.998Z,25.70
2017-12-22T00:34:07.976Z,25.20
2017-12-22T00:35:07.968Z,26.60
2017-12-22T00:36:07.946Z,27.10
2017-12-22T00:37:07.916Z,25.40
2017-12-22T00:38:07.930Z,27.40
2017-12-22T00:39:07.875Z,26.40
2017-12-22T00:40:07.857Z,26.00
2017-12-22T00:41:07.840Z,25.00
2017-12-22T00:42:07.817Z,25.90
2017-12-22T00:43:07.798Z,25.60
2017-12-22T00:44:07.778Z,25.60
2017-12-22T00:45:07.763Z,25.70
2017-12-22T00:46:07.737Z,25.20
2017-12-22T00:47:07.720Z,25.30
2017-12-22T00:48:07.699Z,25.90
2017-12-22T00:49:07.679Z,25.40
2017-12-22T00:50:07.660Z,25.30
2017-12-22T00:51:07.643Z,25.10
2017-12-22T00:52:07.625Z,26.60
2017-12-22T00:53:07.613Z,25.30
2017-12-22T00:54:07.584Z,24.20
2017-12-22T00:55:07.566Z,23.50
2017-12-22T00:56:07.545Z,24.20
2017-12-22T00:57:07.524Z,24.40
2017-12-22T00:58:07.504Z,23.00
2017-12-22T00:59:07.494Z,22.90
2017-12-22T01:00:07.466Z,23.70
2017-12-22T01:01:07.460Z,24.20
2017-12-22T01:02:07.425Z,23.30
2017-12-22T01:03:07.406Z,24.50
2017-12-22T01:04:07.386Z,23.80
2017-12-22T01:05:07.440Z,23.90
2017-12-22T01:06:07.358Z,24.50
2017-12-22T01:07:07.328Z,24.30
2017-12-22T01:08:07.327Z,24.50
2017-12-22T01:09:07.292Z,23.30
2017-12-22T01:10:07.278Z,24.30
2017-12-22T01:11:07.259Z,24.70
2017-12-22T01:12:07.232Z,23.90
2017-12-22T01:13:07.211Z,24.90
2017-12-22T01:14:07.192Z,23.80
2017-12-22T01:15:07.170Z,24.10
2017-12-22T01:16:07.163Z,24.90
2017-12-22T01:17:07.153Z,23.40
2017-12-22T01:18:07.111Z,23.60
2017-12-22T01:19:07.093Z,23.60
2017-12-22T01:20:07.072Z,24.50
2017-12-22T01:21:07.052Z,23.20
2017-12-22T01:22:07.032Z,23.30
2017-12-22T01:23:07.015Z,23.00
2017-12-22T01:24:06.991Z,23.20
2017-12-22T01:25:06.975Z,22.90
2017-12-22T01:26:06.954Z,23.50
2017-12-22T01:27:07.050Z,23.00
2017-12-22T01:28:06.919Z,23.90
2017-12-22T01:29:06.898Z,23.20
2017-12-22T01:30:06.879Z,22.80
2017-12-22T01:31:06.858Z,23.80
2017-12-22T01:32:06.837Z,22.60
2017-12-22T01:33:06.821Z,24.20
2017-12-22T01:34:06.818Z,23.10
2017-12-22T01:35:06.791Z,25.00
2017-12-22T01:36:06.760Z,22.90
2017-12-22T01:37:06.739Z,25.30
2017-12-22T01:38:06.736Z,22.90
2017-12-22T01:39:06.702Z,23.20
2017-12-22T01:40:06.681Z,23.30
2017-12-22T01:41:06.663Z,22.80
2017-12-22T01:42:06.646Z,22.80
2017-12-22T01:43:06.626Z,24.50
2017-12-22T01:44:06.607Z,24.00
2017-12-22T01:45:06.605Z,22.80
2017-12-22T01:46:06.565Z,23.90
2017-12-22T01:47:06.546Z,22.10
2017-12-22T01:48:06.528Z,23.70
2017-12-22T01:49:06.508Z,23.30
2017-12-22T01:50:06.495Z,24.00
2017-12-22T01:51:06.469Z,24.50
2017-12-22T01:52:06.456Z,24.50
2017-12-22T01:53:06.430Z,25.10
2017-12-22T01:54:06.409Z,23.70
2017-12-22T01:55:06.402Z,23.20
2017-12-22T01:56:06.375Z,23.40
2017-12-22T01:57:06.432Z,24.50
2017-12-22T01:58:06.334Z,25.60
2017-12-22T01:59:06.313Z,26.00
2017-12-22T02:00:06.301Z,26.10
2017-12-22T02:01:06.284Z,26.70
2017-12-22T02:02:06.265Z,26.00
2017-12-22T02:03:06.241Z,28.30
2017-12-22T02:04:06.217Z,27.70
2017-12-22T02:05:06.198Z,27.90
2017-12-22T02:06:06.179Z,27.10
2017-12-22T02:07:06.160Z,27.80
2017-12-22T02:08:06.144Z,28.20
2017-12-22T02:09:06.128Z,24.40
2017-12-22T02:10:06.103Z,27.80
2017-12-22T02:11:06.094Z,28.50
2017-12-22T02:12:06.063Z,28.60
2017-12-22T02:13:06.041Z,27.90
2017-12-22T02:14:06.025Z,27.60
2017-12-22T02:15:06.007Z,28.10
2017-12-22T02:16:06.148Z,27.70
2017-12-22T02:17:05.964Z,29.50
2017-12-22T02:18:05.945Z,29.30
2017-12-22T02:19:05.956Z,30.20
2017-12-22T02:20:05.924Z,31.00
2017-12-22T02:21:05.892Z,30.10
2017-12-22T02:22:05.871Z,30.70
2017-12-22T02:23:05.851Z,30.70
2017-12-22T02:24:05.831Z,30.90
2017-12-22T02:25:05.813Z,30.90
2017-12-22T02:26:05.793Z,31.10
2017-12-22T02:27:05.773Z,32.00
2017-12-22T02:28:05.754Z,31.60
2017-12-22T02:29:05.735Z,32.40
2017-12-22T02:30:05.723Z,32.00
2017-12-22T02:31:05.697Z,32.60
2017-12-22T02:32:05.680Z,31.30
2017-12-22T02:33:05.669Z,33.70
2017-12-22T02:34:05.640Z,33.30
2017-12-22T02:35:05.619Z,33.20
2017-12-22T02:36:05.598Z,31.70
2017-12-22T02:37:05.579Z,32.90
2017-12-22T02:38:05.561Z,31.30
2017-12-22T02:39:05.540Z,32.40
2017-12-22T02:40:05.521Z,32.50
2017-12-22T02:41:05.502Z,32.10
2017-12-22T02:42:05.487Z,32.60
2017-12-22T02:43:05.462Z,32.60
2017-12-22T02:44:05.505Z,31.30
2017-12-22T02:45:05.427Z,32.80
2017-12-22T02:46:05.421Z,32.00
2017-12-22T02:47:05.388Z,31.90
2017-12-22T02:48:05.377Z,30.70
2017-12-22T02:49:05.356Z,31.90
2017-12-22T02:50:05.326Z,32.00
2017-12-22T02:51:05.328Z,33.10
2017-12-22T02:52:05.289Z,31.40
2017-12-22T02:53:05.271Z,31.90
2017-12-22T02:54:05.251Z,31.90
2017-12-22T02:55:05.238Z,31.90
2017-12-22T02:56:05.222Z,31.40
2017-12-22T02:57:05.197Z,32.20
2017-12-22T02:58:05.228Z,32.40
2017-12-22T02:59:05.171Z,31.60
2017-12-22T03:00:05.134Z,33.10
2017-12-22T03:01:05.120Z,31.00
2017-12-22T03:02:05.099Z,32.00
2017-12-22T03:03:05.077Z,32.20
2017-12-22T03:04:05.058Z,33.30
2017-12-22T03:05:05.048Z,33.70
2017-12-22T03:06:05.021Z,33.30
2017-12-22T03:07:05.011Z,31.80
2017-12-22T03:08:05.109Z,33.20
2017-12-22T03:09:04.967Z,33.00
2017-12-22T03:10:04.944Z,32.70
2017-12-22T03:11:04.927Z,33.40
2017-12-22T03:12:04.904Z,34.10
2017-12-22T03:13:04.905Z,35.40
2017-12-22T03:14:04.866Z,35.40
2017-12-22T03:15:04.849Z,34.70
2017-12-22T03:16:04.826Z,34.90
2017-12-22T03:17:04.815Z,36.10
2017-12-22T03:18:04.790Z,35.80
2017-12-22T03:19:04.772Z,34.40
2017-12-22T03:20:04.750Z,36.60
2017-12-22T03:21:04.733Z,35.40
2017-12-22T03:22:04.714Z,35.20
2017-12-22T03:23:04.694Z,35.80
2017-12-22T03:24:04.673Z,34.30
2017-12-22T03:25:04.651Z,36.60
2017-12-22T03:26:04.633Z,35.90
2017-12-22T03:27:04.615Z,36.10
2017-12-22T03:28:04.594Z,36.10
2017-12-22T03:29:04.574Z,38.30
2017-12-22T03:30:04.569Z,38.10
2017-12-22T03:31:04.537Z,37.40
2017-12-22T03:32:04.522Z,36.80
2017-12-22T03:33:04.506Z,38.20
2017-12-22T03:34:04.485Z,36.20
2017-12-22T03:35:04.470Z,38.30
2017-12-22T03:36:04.442Z,39.00
2017-12-22T03:37:04.419Z,37.50
2017-12-22T03:38:04.431Z,38.70
2017-12-22T03:39:04.382Z,37.30
2017-12-22T03:40:04.363Z,37.00
2017-12-22T03:41:04.342Z,37.60
2017-12-22T03:42:04.324Z,37.60
2017-12-22T03:43:04.304Z,37.70
2017-12-22T03:44:04.284Z,38.70
2017-12-22T03:45:04.275Z,36.90
2017-12-22T03:46:04.248Z,39.00
2017-12-22T03:47:04.229Z,38.50
2017-12-22T03:48:04.208Z,37.70
2017-12-22T03:49:04.189Z,39.40
2017-12-22T03:50:04.169Z,39.20
2017-12-22T03:51:04.151Z,39.90
2017-12-22T03:52:04.129Z,37.40
2017-12-22T03:53:04.111Z,37.90
2017-12-22T03:54:04.240Z,39.00
2017-12-22T03:55:04.072Z,39.20
2017-12-22T03:56:04.053Z,38.40
2017-12-22T03:57:04.038Z,39.40
2017-12-22T03:58:04.017Z,38.70
2017-12-22T03:59:04.006Z,37.20
2017-12-22T04:00:03.985Z,37.90
2017-12-22T04:01:03.958Z,36.80
2017-12-22T04:02:03.991Z,37.30
2017-12-22T04:03:03.919Z,37.20
2017-12-22T04:04:03.899Z,34.40
2017-12-22T04:05:03.879Z,34.10
2017-12-22T04:06:03.860Z,34.00
2017-12-22T04:07:03.842Z,32.60
2017-12-22T04:08:03.822Z,30.50
2017-12-22T04:09:03.802Z,32.20
2017-12-22T04:10:03.787Z,33.80
2017-12-22T04:11:03.767Z,34.60
2017-12-22T04:12:03.750Z,35.80
2017-12-22T04:13:03.725Z,33.60
2017-12-22T04:14:03.706Z,37.80
2017-12-22T04:15:03.688Z,38.50
2017-12-22T04:16:03.669Z,37.10
2017-12-22T04:17:03.649Z,38.30
2017-12-22T04:18:03.628Z,36.60
2017-12-22T04:19:03.617Z,38.90
2017-12-22T04:20:03.595Z,36.90
2017-12-22T04:21:03.582Z,35.50
2017-12-22T04:22:03.554Z,38.60
2017-12-22T04:23:03.536Z,37.10
2017-12-22T04:24:03.589Z,37.90
2017-12-22T04:25:03.502Z,37.80
2017-12-22T04:26:03.476Z,37.80
2017-12-22T04:27:03.509Z,37.90
2017-12-22T04:28:03.436Z,37.50
2017-12-22T04:29:03.417Z,38.90
2017-12-22T04:30:03.403Z,38.20
2017-12-22T04:31:03.382Z,37.30
2017-12-22T04:32:03.363Z,38.50
2017-12-22T04:33:03.343Z,37.20
2017-12-22T04:34:03.340Z,38.60
2017-12-22T04:35:03.301Z,36.80
2017-12-22T04:36:03.282Z,37.90
2017-12-22T04:37:03.264Z,38.70
2017-12-22T04:38:03.247Z,37.00
2017-12-22T04:39:03.225Z,38.30
2017-12-22T04:40:03.206Z,37.20
2017-12-22T04:41:03.191Z,37.90
2017-12-22T04:42:03.171Z,37.10
2017-12-22T04:43:03.162Z,38.80
2017-12-22T04:44:03.130Z,38.20
2017-12-22T04:45:03.109Z,36.60
2017-12-22T04:46:03.097Z,37.10
2017-12-22T04:47:03.073Z,38.30
2017-12-22T04:48:03.056Z,37.90
2017-12-22T04:49:03.041Z,39.00
2017-12-22T04:50:03.015Z,36.90
2017-12-22T04:51:02.999Z,36.80
2017-12-22T04:52:02.980Z,36.50
2017-12-22T04:53:02.959Z,35.60
2017-12-22T04:54:02.947Z,33.30
2017-12-22T04:55:02.919Z,29.90
2017-12-22T04:56:02.898Z,30.50
2017-12-22T04:57:02.881Z,30.10
2017-12-22T04:58:02.861Z,28.90
2017-12-22T04:59:02.844Z,29.10
2017-12-22T05:00:02.826Z,29.90
2017-12-22T05:01:02.808Z,28.30
2017-12-22T05:02:02.787Z,29.80
2017-12-22T05:03:02.769Z,30.70
2017-12-22T05:04:02.749Z,33.20
2017-12-22T05:05:02.729Z,32.10
2017-12-22T05:06:02.711Z,33.30
2017-12-22T05:07:02.693Z,34.90
2017-12-22T05:08:02.673Z,35.10
2017-12-22T05:09:02.652Z,38.50
2017-12-22T05:10:02.637Z,36.90
2017-12-22T05:11:02.617Z,36.60
2017-12-22T05:12:02.597Z,37.20
2017-12-22T05:13:02.577Z,35.80
2017-12-22T05:14:02.557Z,38.10
2017-12-22T05:15:02.539Z,38.20
2017-12-22T05:16:02.605Z,38.40
2017-12-22T05:17:02.499Z,37.40
2017-12-22T05:18:02.480Z,37.40
2017-12-22T05:19:02.524Z,38.80
2017-12-22T05:20:02.445Z,35.80
2017-12-22T05:21:02.424Z,38.70
2017-12-22T05:22:02.407Z,39.40
2017-12-22T05:23:02.396Z,39.50
2017-12-22T05:24:02.367Z,40.30
2017-12-22T05:25:02.347Z,38.00
2017-12-22T05:26:02.328Z,39.00
2017-12-22T05:27:02.316Z,40.00
2017-12-22T05:28:02.290Z,41.20
2017-12-22T05:29:02.269Z,39.90
2017-12-22T05:30:02.254Z,40.70
2017-12-22T05:31:02.237Z,41.70
2017-12-22T05:32:02.357Z,42.50
2017-12-22T05:33:02.194Z,40.50
2017-12-22T05:34:02.175Z,41.20
2017-12-22T05:35:02.193Z,40.30
2017-12-22T05:36:02.136Z,43.20
2017-12-22T05:37:02.116Z,41.70
2017-12-22T05:38:02.154Z,41.10
2017-12-22T05:39:02.083Z,42.60
2017-12-22T05:40:02.067Z,42.20
2017-12-22T05:41:02.043Z,40.50
2017-12-22T05:42:02.022Z,42.10
2017-12-22T05:43:02.005Z,42.40
2017-12-22T05:44:01.991Z,42.60
2017-12-22T05:45:01.965Z,42.40
2017-12-22T05:46:01.948Z,41.20
2017-12-22T05:47:01.936Z,42.30
2017-12-22T05:48:01.907Z,41.80
2017-12-22T05:49:01.893Z,40.80
2017-12-22T05:50:01.872Z,42.40
2017-12-22T05:51:01.852Z,41.90
2017-12-22T05:52:01.831Z,44.20
2017-12-22T05:53:01.813Z,43.00
2017-12-22T05:54:01.819Z,42.80
2017-12-22T05:55:01.776Z,41.00
2017-12-22T05:56:01.760Z,41.60
2017-12-22T05:57:01.741Z,40.60
2017-12-22T05:58:01.720Z,42.30
2017-12-22T05:59:01.701Z,42.40
2017-12-22T06:00:01.681Z,42.80
2017-12-22T06:01:01.659Z,41.40
2017-12-22T06:02:01.779Z,43.50
2017-12-22T06:03:01.627Z,43.70
2017-12-22T06:04:01.604Z,43.60
2017-12-22T06:05:01.608Z,43.90
2017-12-22T06:06:01.570Z,44.50
2017-12-22T06:07:01.549Z,43.60
2017-12-22T06:08:01.530Z,44.20
2017-12-22T06:09:01.510Z,44.50
2017-12-22T06:10:01.491Z,42.30
2017-12-22T06:11:01.475Z,43.90
2017-12-22T06:12:01.454Z,42.80
2017-12-22T06:13:01.436Z,44.50
2017-12-22T06:14:01.421Z,42.30
2017-12-22T06:15:01.398Z,42.80
2017-12-22T06:16:01.379Z,42.10
2017-12-22T06:17:01.370Z,42.60
2017-12-22T06:18:01.346Z,44.70
2017-12-22T06:19:01.330Z,41.50
2017-12-22T06:20:01.301Z,43.00
2017-12-22T06:21:01.280Z,42.50
2017-12-22T06:22:01.263Z,41.80
2017-12-22T06:23:01.249Z,40.40
2017-12-22T06:24:01.305Z,39.70
2017-12-22T06:25:01.206Z,40.80
2017-12-22T06:26:01.202Z,39.70
2017-12-22T06:27:01.173Z,37.40
2017-12-22T06:28:01.150Z,36.40
2017-12-22T06:29:01.129Z,36.80
2017-12-22T06:30:01.109Z,37.80
2017-12-22T06:31:01.091Z,36.90
2017-12-22T06:32:01.071Z,35.80
2017-12-22T06:33:01.056Z,36.40
2017-12-22T06:34:01.035Z,36.20
2017-12-22T06:35:01.017Z,36.90
2017-12-22T06:36:00.996Z,36.20
2017-12-22T06:37:00.974Z,35.30
2017-12-22T06:38:00.962Z,37.60
2017-12-22T06:39:00.937Z,34.50
2017-12-22T06:40:00.919Z,37.40
2017-12-22T06:41:00.900Z,37.80
2017-12-22T06:42:00.881Z,37.50
2017-12-22T06:43:00.870Z,37.70
2017-12-22T06:44:00.839Z,37.70
2017-12-22T06:45:00.827Z,37.70
2017-12-22T06:46:00.804Z,40.00
2017-12-22T06:47:00.809Z,39.70
2017-12-22T06:48:00.764Z,37.00
2017-12-22T06:49:00.743Z,37.40
2017-12-22T06:50:00.724Z,39.70
2017-12-22T06:51:00.727Z,42.20
2017-12-22T06:52:00.686Z,38.00
2017-12-22T06:53:00.728Z,38.60
2017-12-22T06:54:00.666Z,38.90
2017-12-22T06:55:00.633Z,38.70
2017-12-22T06:56:00.615Z,39.60
2017-12-22T06:57:00.610Z,42.10
2017-12-22T06:58:00.572Z,41.10
2017-12-22T06:59:00.553Z,42.90
2017-12-22T07:00:00.564Z,42.20
2017-12-22T07:01:00.513Z,43.60
2017-12-22T07:02:00.495Z,38.60
2017-12-22T07:03:00.475Z,45.50
2017-12-22T07:04:00.454Z,45.70
2017-12-22T07:05:00.434Z,45.90
2017-12-22T07:06:00.417Z,43.90
2017-12-22T07:07:00.397Z,41.70
2017-12-22T07:08:00.379Z,41.80
2017-12-22T07:09:00.359Z,40.50
2017-12-22T07:10:00.348Z,41.70
2017-12-22T07:11:00.322Z,43.20
2017-12-22T07:12:00.302Z,41.20
2017-12-22T07:13:00.293Z,41.60
2017-12-22T07:14:00.261Z,42.40
2017-12-22T07:15:00.243Z,43.40
2017-12-22T07:16:00.232Z,44.10
2017-12-22T07:17:00.203Z,45.40
2017-12-22T07:18:00.184Z,44.30
2017-12-22T07:19:00.165Z,45.00
2017-12-22T07:20:00.145Z,44.80
2017-12-22T07:21:00.126Z,43.70
2017-12-22T07:22:00.109Z,46.40
2017-12-22T07:23:00.091Z,45.90
2017-12-22T07:24:00.069Z,47.30
2017-12-22T07:25:00.049Z,46.40
2017-12-22T07:26:00.035Z,44.90
2017-12-22T07:27:00.008Z,48.80
2017-12-22T07:27:59.988Z,49.30
2017-12-22T07:28:59.968Z,48.00
2017-12-22T07:29:59.965Z,47.70
2017-12-22T07:30:59.933Z,49.20
2017-12-22T07:31:59.910Z,48.40
2017-12-22T07:32:59.892Z,51.40
2017-12-22T07:33:59.872Z,50.70
2017-12-22T07:34:59.857Z,48.10
2017-12-22T07:35:59.832Z,47.60
2017-12-22T07:36:59.815Z,47.20
2017-12-22T07:37:59.797Z,49.10
2017-12-22T07:38:59.776Z,48.60
2017-12-22T07:39:59.757Z,47.70
2017-12-22T07:40:59.738Z,47.70
2017-12-22T07:41:59.717Z,48.80
2017-12-22T07:42:59.710Z,48.90
2017-12-22T07:43:59.684Z,47.80
2017-12-22T07:44:59.663Z,46.90
2017-12-22T07:45:59.652Z,46.70
2017-12-22T07:46:59.619Z,45.90
2017-12-22T07:47:59.597Z,46.20
2017-12-22T07:48:59.580Z,48.50
2017-12-22T07:49:59.605Z,49.10
2017-12-22T07:50:59.540Z,50.80
2017-12-22T07:51:59.529Z,49.80
2017-12-22T07:52:59.500Z,52.90
2017-12-22T07:53:59.486Z,55.00
2017-12-22T07:54:59.465Z,71.70
2017-12-22T07:55:59.444Z,56.70
2017-12-22T07:56:59.424Z,51.60
2017-12-22T07:57:59.418Z,47.90
2017-12-22T07:58:59.397Z,51.60
2017-12-22T07:59:59.364Z,49.50
2017-12-22T08:00:59.346Z,49.40
2017-12-22T08:01:59.327Z,50.50
2017-12-22T08:02:59.312Z,51.70
2017-12-22T08:03:59.285Z,49.70
2017-12-22T08:04:59.379Z,47.20
2017-12-22T08:05:59.250Z,47.20
2017-12-22T08:06:59.232Z,45.80
2017-12-22T08:07:59.219Z,46.30
2017-12-22T08:08:59.190Z,45.20
2017-12-22T08:09:59.177Z,45.60
2017-12-22T08:10:59.156Z,47.70
2017-12-22T08:11:59.136Z,50.00
2017-12-22T08:12:59.118Z,49.50
2017-12-22T08:13:59.094Z,51.80
2017-12-22T08:14:59.086Z,50.70
2017-12-22T08:15:59.054Z,53.80
2017-12-22T08:16:59.046Z,51.70
2017-12-22T08:17:59.022Z,54.90
2017-12-22T08:18:59.002Z,51.70
2017-12-22T08:19:58.985Z,53.00
2017-12-22T08:20:58.961Z,51.30
2017-12-22T08:21:58.949Z,54.80
2017-12-22T08:22:58.935Z,55.90
2017-12-22T08:23:58.901Z,58.90
2017-12-22T08:24:58.896Z,56.00
2017-12-22T08:25:58.867Z,53.50
2017-12-22T08:26:58.846Z,52.00
2017-12-22T08:27:58.826Z,57.00
2017-12-22T08:28:58.819Z,47.50
2017-12-22T08:29:58.790Z,46.50
2017-12-22T08:30:58.776Z,49.80
2017-12-22T08:31:58.768Z,52.70
2017-12-22T08:32:58.732Z,54.30
2017-12-22T08:33:58.712Z,52.50
2017-12-22T08:34:58.789Z,50.40
2017-12-22T08:35:58.681Z,49.30
2017-12-22T08:36:58.668Z,49.40
2017-12-22T08:37:58.720Z,51.10
2017-12-22T08:38:58.620Z,49.00
2017-12-22T08:39:58.600Z,48.80
2017-12-22T08:40:58.586Z,52.10
2017-12-22T08:41:58.565Z,52.50
2017-12-22T08:42:58.543Z,53.10
2017-12-22T08:43:58.520Z,47.30
2017-12-22T08:44:58.511Z,45.90
2017-12-22T08:45:58.487Z,45.60
2017-12-22T08:46:58.472Z,46.40
2017-12-22T08:47:58.451Z,46.90
2017-12-22T08:48:58.427Z,48.30
2017-12-22T08:49:58.426Z,51.40
2017-12-22T08:50:58.390Z,46.50
2017-12-22T08:51:58.369Z,48.20
2017-12-22T08:52:58.351Z,47.90
2017-12-22T08:53:58.432Z,43.50
2017-12-22T08:54:58.316Z,44.40
2017-12-22T08:55:58.297Z,43.90
2017-12-22T08:56:58.278Z,41.50
2017-12-22T08:57:58.260Z,40.80
2017-12-22T08:58:58.237Z,39.60
2017-12-22T08:59:58.228Z,38.70
2017-12-22T09:00:58.206Z,37.70
2017-12-22T09:01:58.188Z,36.90
2017-12-22T09:02:58.171Z,37.10
2017-12-22T09:03:58.164Z,37.20
2017-12-22T09:04:58.128Z,36.80
2017-12-22T09:05:58.107Z,37.30
2017-12-22T09:06:58.092Z,37.90
2017-12-22T09:07:58.079Z,38.50
2017-12-22T09:08:58.062Z,38.20
2017-12-22T09:09:58.036Z,38.60
2017-12-22T09:10:58.024Z,38.20
2017-12-22T09:11:57.997Z,37.90
2017-12-22T09:12:57.979Z,38.90
2017-12-22T09:13:57.966Z,39.70
2017-12-22T09:14:57.945Z,37.50
2017-12-22T09:15:57.923Z,39.80
2017-12-22T09:16:57.909Z,41.40
2017-12-22T09:17:57.884Z,43.00
2017-12-22T09:18:57.865Z,44.00
2017-12-22T09:19:57.851Z,48.70
2017-12-22T09:20:57.838Z,46.50
2017-12-22T09:21:57.814Z,42.30
2017-12-22T09:22:57.797Z,46.30
2017-12-22T09:23:57.798Z,44.20
2017-12-22T09:24:57.754Z,43.20
2017-12-22T09:25:57.738Z,42.60
2017-12-22T09:26:57.724Z,47.50
2017-12-22T09:27:57.703Z,49.00
2017-12-22T09:28:57.685Z,46.10
2017-12-22T09:29:57.714Z,52.30
2017-12-22T09:30:57.644Z,44.10
2017-12-22T09:31:57.627Z,47.10
2017-12-22T09:32:57.614Z,44.80
2017-12-22T09:33:57.599Z,44.70
2017-12-22T09:34:57.588Z,45.10
2017-12-22T09:35:57.557Z,45.80
2017-12-22T09:36:57.536Z,45.10
2017-12-22T09:37:57.523Z,47.70
2017-12-22T09:38:57.505Z,45.90
2017-12-22T09:39:57.488Z,44.20
2017-12-22T09:40:57.489Z,45.60
2017-12-22T09:41:57.442Z,45.00
2017-12-22T09:42:57.452Z,44.50
2017-12-22T09:43:57.406Z,42.40
2017-12-22T09:44:57.388Z,43.40
2017-12-22T09:45:57.422Z,40.70
2017-12-22T09:46:57.352Z,41.90
2017-12-22T09:47:57.332Z,40.50
2017-12-22T09:48:57.349Z,41.40
2017-12-22T09:49:57.305Z,42.50
2017-12-22T09:50:57.288Z,41.50
2017-12-22T09:51:57.257Z,41.00
2017-12-22T09:52:57.248Z,39.40
2017-12-22T09:53:57.224Z,40.20
2017-12-22T09:54:57.241Z,41.20
2017-12-22T09:55:57.193Z,40.60
2017-12-22T09:56:57.176Z,40.30
2017-12-22T09:57:57.152Z,39.80
2017-12-22T09:58:57.134Z,37.60
2017-12-22T09:59:57.113Z,38.30
2017-12-22T10:00:57.098Z,39.60
2017-12-22T10:01:57.159Z,37.20
2017-12-22T10:02:57.062Z,39.70
2017-12-22T10:03:57.042Z,38.20
2017-12-22T10:04:57.027Z,40.30
2017-12-22T10:05:57.018Z,37.90
2017-12-22T10:06:56.991Z,38.80
2017-12-22T10:07:56.968Z,38.20
2017-12-22T10:08:56.957Z,38.80
2017-12-22T10:09:56.945Z,38.30
2017-12-22T10:10:56.918Z,42.80
2017-12-22T10:11:56.898Z,37.60
2017-12-22T10:12:56.912Z,39.20
2017-12-22T10:13:56.870Z,39.10
2017-12-22T10:14:56.852Z,36.10
2017-12-22T10:15:56.825Z,33.90
2017-12-22T10:16:56.810Z,34.60
2017-12-22T10:17:56.790Z,35.60
2017-12-22T10:18:56.774Z,35.50
2017-12-22T10:19:56.755Z,36.00
2017-12-22T10:20:56.747Z,34.80
2017-12-22T10:21:56.721Z,35.10
2017-12-22T10:22:56.708Z,34.20
2017-12-22T10:23:56.699Z,33.80
2017-12-22T10:24:56.667Z,33.40
2017-12-22T10:25:56.653Z,33.30
2017-12-22T10:26:56.633Z,32.30
2017-12-22T10:27:56.625Z,33.00
2017-12-22T10:28:56.626Z,33.50
2017-12-22T10:29:56.576Z,32.10
2017-12-22T10:30:56.565Z,32.30
2017-12-22T10:31:56.550Z,32.50
2017-12-22T10:32:56.526Z,29.90
2017-12-22T10:33:56.505Z,28.90
2017-12-22T10:34:56.532Z,30.60
2017-12-22T10:35:56.467Z,30.00
2017-12-22T10:36:56.461Z,31.00
2017-12-22T10:37:56.442Z,30.30
2017-12-22T10:38:56.418Z,30.00
2017-12-22T10:39:56.403Z,31.20
2017-12-22T10:40:56.408Z,30.20
2017-12-22T10:41:56.362Z,29.90
2017-12-22T10:42:56.352Z,29.80
2017-12-22T10:43:56.333Z,33.40
2017-12-22T10:44:56.307Z,31.30
2017-12-22T10:45:56.291Z,30.30
2017-12-22T10:46:56.274Z,29.20
2017-12-22T10:47:56.264Z,29.70
2017-12-22T10:48:56.242Z,29.70
2017-12-22T10:49:56.227Z,30.80
2017-12-22T10:50:56.225Z,30.40
2017-12-22T10:51:56.188Z,31.40
2017-12-22T10:52:56.170Z,31.40
2017-12-22T10:53:56.152Z,30.80
2017-12-22T10:54:56.133Z,32.20
2017-12-22T10:55:56.146Z,31.50
2017-12-22T10:56:56.097Z,31.30
2017-12-22T10:57:56.090Z,31.50
2017-12-22T10:58:56.153Z,30.60
2017-12-22T10:59:56.041Z,42.20
2017-12-22T11:00:56.026Z,37.00
2017-12-22T11:01:56.014Z,33.40
2017-12-22T11:02:55.988Z,32.90
2017-12-22T11:03:55.983Z,29.40
2017-12-22T11:04:55.955Z,31.00
2017-12-22T11:05:55.939Z,30.80
2017-12-22T11:06:55.920Z,31.30
2017-12-22T11:07:55.900Z,29.60
2017-12-22T11:08:55.896Z,32.20
2017-12-22T11:09:55.868Z,29.90
2017-12-22T11:10:55.847Z,31.30
2017-12-22T11:11:55.827Z,30.50
2017-12-22T11:12:55.814Z,30.10
2017-12-22T11:13:55.798Z,30.10
2017-12-22T11:14:55.777Z,30.00
2017-12-22T11:15:55.761Z,29.30
2017-12-22T11:16:55.740Z,28.10
2017-12-22T11:17:55.721Z,29.10
2017-12-22T11:18:55.714Z,28.60
2017-12-22T11:19:55.693Z,28.80
2017-12-22T11:20:55.764Z,29.50
2017-12-22T11:21:55.657Z,28.00
2017-12-22T11:22:55.637Z,28.90
2017-12-22T11:23:55.621Z,28.00
2017-12-22T11:24:55.595Z,29.30
2017-12-22T11:25:55.581Z,28.50
2017-12-22T11:26:55.560Z,29.70
2017-12-22T11:27:55.546Z,28.80
2017-12-22T11:28:55.534Z,28.80
2017-12-22T11:29:55.507Z,27.30
2017-12-22T11:30:55.490Z,27.40
2017-12-22T11:31:55.474Z,27.40
2017-12-22T11:32:55.472Z,28.80
2017-12-22T11:33:55.437Z,27.80
2017-12-22T11:34:55.418Z,28.20
2017-12-22T11:35:55.427Z,27.90
2017-12-22T11:36:55.392Z,29.10
2017-12-22T11:37:55.365Z,27.90
2017-12-22T11:38:55.362Z,28.40
2017-12-22T11:39:55.335Z,28.70
2017-12-22T11:40:55.314Z,29.40
2017-12-22T11:41:55.301Z,29.70
2017-12-22T11:42:55.276Z,27.20
2017-12-22T11:43:55.259Z,29.60
2017-12-22T11:44:55.240Z,29.60
2017-12-22T11:45:55.224Z,27.80
2017-12-22T11:46:55.203Z,29.80
2017-12-22T11:47:55.202Z,29.70
2017-12-22T11:48:55.180Z,29.30
2017-12-22T11:49:55.152Z,28.80
2017-12-22T11:50:55.192Z,29.00
2017-12-22T11:51:55.121Z,29.30
2017-12-22T11:52:55.096Z,30.80
2017-12-22T11:53:55.098Z,30.40
2017-12-22T11:54:55.074Z,28.50
2017-12-22T11:55:55.047Z,27.80
2017-12-22T11:56:55.030Z,28.20
2017-12-22T11:57:55.018Z,27.80
2017-12-22T11:58:54.998Z,27.50
2017-12-22T11:59:54.979Z,28.10
2017-12-22T12:00:54.970Z,28.20
2017-12-22T12:01:54.937Z,27.60
2017-12-22T12:02:54.922Z,26.90
2017-12-22T12:03:54.911Z,26.30
2017-12-22T12:04:54.884Z,27.40
2017-12-22T12:05:54.864Z,27.60
2017-12-22T12:06:54.964Z,27.70
2017-12-22T12:07:54.831Z,28.00
2017-12-22T12:08:54.810Z,27.50
2017-12-22T12:09:54.831Z,26.40
2017-12-22T12:10:54.782Z,27.60
2017-12-22T12:11:54.772Z,27.00
2017-12-22T12:12:54.740Z,25.50
2017-12-22T12:13:54.732Z,27.80
2017-12-22T12:14:54.705Z,27.10
2017-12-22T12:15:54.689Z,26.60
2017-12-22T12:16:54.677Z,27.00
2017-12-22T12:17:54.652Z,26.90
2017-12-22T12:18:54.681Z,26.70
2017-12-22T12:19:54.640Z,26.20
2017-12-22T12:20:54.599Z,26.00
2017-12-22T12:21:54.583Z,28.40
2017-12-22T12:22:54.562Z,26.20
2017-12-22T12:23:54.551Z,27.70
2017-12-22T12:24:54.527Z,29.90
2017-12-22T12:25:54.512Z,27.10
2017-12-22T12:26:54.502Z,26.00
2017-12-22T12:27:54.499Z,24.90
2017-12-22T12:28:54.458Z,23.90
2017-12-22T12:29:54.448Z,25.60
2017-12-22T12:30:54.423Z,26.00
2017-12-22T12:31:54.417Z,26.50
2017-12-22T12:32:54.388Z,26.60
2017-12-22T12:33:54.369Z,26.90
2017-12-22T12:34:54.401Z,26.00
2017-12-22T12:35:54.330Z,27.40
2017-12-22T12:36:54.397Z,27.00
2017-12-22T12:37:54.317Z,26.10
2017-12-22T12:38:54.281Z,25.60
2017-12-22T12:39:54.265Z,26.70
2017-12-22T12:40:54.267Z,25.60
2017-12-22T12:41:54.225Z,26.10
2017-12-22T12:42:54.220Z,23.10
2017-12-22T12:43:54.200Z,23.50
2017-12-22T12:44:54.194Z,22.70
2017-12-22T12:45:54.157Z,22.90
2017-12-22T12:46:54.139Z,22.50
2017-12-22T12:47:54.128Z,21.80
2017-12-22T12:48:54.150Z,23.60
2017-12-22T12:49:54.087Z,21.80
2017-12-22T12:50:54.069Z,27.40
2017-12-22T12:51:54.057Z,27.80